Time;durP1;ratioP1;P1;durP2;ratioP2;P2;SDS_P1;SDS_P2;PMS_P1;PMS_P2;Temp;Humidity;BMP_temperature;BMP_pressure;BME280_temperature;BME280_humidity;BME280_pressure;Samples;Min_cycle;Max_cycle;Signal;HPM_P1;HPM_P2
2022/04/26 03:37:32;;;;;;;3.27;1.70;;;;;;;;;;5011688;28;20223;-94
2022/04/26 03:40:00;;;;;;;4.33;1.70;;;;;;;;;;5065171;28;20235;-94
2022/04/26 03:42:33;;;;;;;2.17;1.37;;;;;;;;;;5073253;28;20189;-94
2022/04/26 03:45:04;;;;;;;4.03;1.60;;;;;;;;;;5073129;28;20251;-94
2022/04/26 03:47:31;;;;;;;6.43;1.90;;;;;;;;;;5072724;28;20296;-93
2022/04/26 03:50:01;;;;;;;4.47;1.97;;;;;;;;;;5072865;28;20243;-94
2022/04/26 03:52:52;;;;;;;2.57;1.23;;;;;;;;;;5072445;28;20657;-93
2022/04/26 03:55:20;;;;;;;3.63;1.80;;;;;;;;;;5072592;28;20285;-93
2022/04/26 03:57:54;;;;;;;4.00;1.87;;;;;;;;;;5073828;28;20203;-93
2022/04/26 04:00:21;;;;;;;5.13;2.37;;;;;;;;;;5072839;28;20312;-93
2022/04/26 04:02:51;;;;;;;4.30;2.20;;;;;;;;;;5072760;28;20197;-93
2022/04/26 04:05:19;;;;;;;3.73;1.73;;;;;;;;;;5073073;28;20280;-94
2022/04/26 04:07:47;;;;;;;4.53;1.47;;;;;;;;;;5072896;28;20216;-94
2022/04/26 04:10:15;;;;;;;2.27;1.63;;;;;;;;;;5072891;28;20308;-94
2022/04/26 04:12:42;;;;;;;5.70;3.50;;;;;;;;;;5072679;28;20283;-94
2022/04/26 04:15:10;;;;;;;3.50;2.47;;;;;;;;;;5072445;28;20292;-94
2022/04/26 04:17:38;;;;;;;8.47;2.27;;;;;;;;;;5072862;28;20213;-93
2022/04/26 04:20:17;;;;;;;6.23;2.10;;;;;;;;;;5072782;28;20295;-93
2022/04/26 04:23:04;;;;;;;4.67;3.37;;;;;;;;;;5072722;28;20595;-94
2022/04/26 04:25:31;;;;;;;5.30;2.80;;;;;;;;;;5072570;28;20231;-92
2022/04/26 04:28:05;;;;;;;3.70;1.90;;;;;;;;;;5073373;28;20265;-93
2022/04/26 04:30:32;;;;;;;5.00;2.13;;;;;;;;;;5072502;28;20662;-94
2022/04/26 04:33:02;;;;;;;4.10;1.70;;;;;;;;;;5073173;28;20213;-93
2022/04/26 04:35:29;;;;;;;1.77;1.27;;;;;;;;;;5073296;28;20272;-94
2022/04/26 04:37:57;;;;;;;4.53;1.80;;;;;;;;;;5073316;28;20185;-94
2022/04/26 04:40:37;;;;;;;5.93;1.57;;;;;;;;;;5073257;28;20367;-93
2022/04/26 04:43:08;;;;;;;3.23;1.80;;;;;;;;;;5072705;28;20209;-93
2022/04/26 04:45:44;;;;;;;7.93;1.60;;;;;;;;;;5072547;28;20224;-94
2022/04/26 04:48:12;;;;;;;2.87;1.57;;;;;;;;;;5076414;28;20288;-94
2022/04/26 04:50:42;;;;;;;2.13;1.93;;;;;;;;;;5076597;28;20279;-94
2022/04/26 04:53:19;;;;;;;2.63;1.73;;;;;;;;;;5076165;28;20207;-93
2022/04/26 04:55:54;;;;;;;2.80;1.37;;;;;;;;;;5076058;28;20295;-94
2022/04/26 04:58:27;;;;;;;1.73;1.20;;;;;;;;;;5075910;28;20215;-94
2022/04/26 05:01:07;;;;;;;1.60;1.27;;;;;;;;;;5076558;28;20554;-94
2022/04/26 05:03:34;;;;;;;2.90;1.47;;;;;;;;;;5076396;28;20258;-94
2022/04/26 05:06:01;;;;;;;2.93;1.40;;;;;;;;;;5076030;28;20232;-94
2022/04/26 05:08:29;;;;;;;5.77;2.00;;;;;;;;;;5075843;28;20214;-93
2022/04/26 05:11:04;;;;;;;4.17;3.27;;;;;;;;;;5076719;28;20233;-94
2022/04/26 05:13:31;;;;;;;5.27;3.27;;;;;;;;;;5075722;28;20201;-94
2022/04/26 05:16:02;;;;;;;6.90;3.03;;;;;;;;;;5075674;28;20281;-96
2022/04/26 05:18:32;;;;;;;4.57;2.47;;;;;;;;;;5076120;28;20676;-94
2022/04/26 05:20:59;;;;;;;2.43;2.23;;;;;;;;;;5075831;28;20197;-94
2022/04/26 05:26:20;;;;;;;14.63;2.30;;;;;;;;;;5075887;28;20188;-93
2022/04/26 05:28:50;;;;;;;3.20;2.07;;;;;;;;;;5075468;28;20226;-93
2022/04/26 05:31:20;;;;;;;13.53;4.77;;;;;;;;;;5075453;28;20236;-94
2022/04/26 05:33:48;;;;;;;4.33;3.10;;;;;;;;;;5075406;28;20288;-93
2022/04/26 05:36:15;;;;;;;40.07;26.67;;;;;;;;;;5074888;28;20247;-94
2022/04/26 05:38:42;;;;;;;8.77;4.40;;;;;;;;;;5075393;28;20212;-93
2022/04/26 05:41:16;;;;;;;26.70;15.53;;;;;;;;;;5075553;28;20190;-93
2022/04/26 05:43:44;;;;;;;5.37;2.40;;;;;;;;;;5075402;28;20199;-92
2022/04/26 05:46:12;;;;;;;8.00;2.17;;;;;;;;;;5075382;28;20345;-94
2022/04/26 05:48:40;;;;;;;5.93;2.27;;;;;;;;;;5076963;28;20192;-93
2022/04/26 05:51:08;;;;;;;5.60;1.70;;;;;;;;;;5075956;28;20197;-94
2022/04/26 05:53:36;;;;;;;5.80;2.20;;;;;;;;;;5075678;28;20202;-93
2022/04/26 05:56:05;;;;;;;2.00;1.63;;;;;;;;;;5074804;28;20600;-94
2022/04/26 05:58:32;;;;;;;3.33;1.90;;;;;;;;;;5074151;28;20294;-94
2022/04/26 06:01:02;;;;;;;12.53;3.17;;;;;;;;;;5074961;28;20207;-94
2022/04/26 06:03:33;;;;;;;8.70;2.70;;;;;;;;;;5075215;28;20675;-94
2022/04/26 06:06:04;;;;;;;7.33;2.93;;;;;;;;;;5074956;28;20194;-93
2022/04/26 06:08:34;;;;;;;12.00;6.97;;;;;;;;;;5074872;28;20287;-95
2022/04/26 06:11:02;;;;;;;4.10;1.77;;;;;;;;;;5056996;28;20287;-93
2022/04/26 06:13:32;;;;;;;46.03;27.20;;;;;;;;;;5074624;28;20283;-94
2022/04/26 06:16:04;;;;;;;3.97;2.13;;;;;;;;;;5074608;28;20282;-94
2022/04/26 06:18:33;;;;;;;4.17;2.80;;;;;;;;;;5074900;28;20615;-93
2022/04/26 06:21:06;;;;;;;7.00;4.77;;;;;;;;;;5076577;28;20197;-93
2022/04/26 06:23:37;;;;;;;4.50;2.50;;;;;;;;;;5074389;28;20193;-95
2022/04/26 06:26:13;;;;;;;11.27;8.00;;;;;;;;;;5074452;28;20213;-94
2022/04/26 06:28:46;;;;;;;2.50;1.47;;;;;;;;;;5074874;28;20653;-95
2022/04/26 06:31:15;;;;;;;1.40;1.30;;;;;;;;;;5074351;28;20213;-93
2022/04/26 06:33:49;;;;;;;2.07;1.20;;;;;;;;;;5074322;28;20201;-94
2022/04/26 06:36:16;;;;;;;1.03;1.00;;;;;;;;;;5074220;28;20232;-94
2022/04/26 06:38:43;;;;;;;3.83;2.10;;;;;;;;;;5074345;28;20189;-93
2022/04/26 06:41:11;;;;;;;3.27;2.87;;;;;;;;;;5074322;28;20220;-94
2022/04/26 06:43:38;;;;;;;4.60;3.43;;;;;;;;;;5074881;28;20231;-95
2022/04/26 06:46:08;;;;;;;3.03;1.70;;;;;;;;;;5075131;28;20205;-93
2022/04/26 06:48:37;;;;;;;1.60;1.33;;;;;;;;;;5074443;28;20224;-94
2022/04/26 06:51:10;;;;;;;1.30;1.20;;;;;;;;;;5074629;28;20673;-94
2022/04/26 06:53:37;;;;;;;1.93;1.40;;;;;;;;;;5074010;28;20260;-93
2022/04/26 06:56:05;;;;;;;4.77;1.63;;;;;;;;;;5074103;28;20203;-94
2022/04/26 06:58:35;;;;;;;3.53;2.50;;;;;;;;;;5073869;28;20287;-93
2022/04/26 07:01:03;;;;;;;6.27;4.20;;;;;;;;;;5073671;28;20228;-94
2022/04/26 07:03:30;;;;;;;5.30;3.20;;;;;;;;;;5073986;28;20557;-95
2022/04/26 07:05:59;;;;;;;5.73;1.60;;;;;;;;;;5074029;28;20788;-95
2022/04/26 07:08:26;;;;;;;2.37;1.60;;;;;;;;;;5074035;28;20275;-95
2022/04/26 07:10:53;;;;;;;3.60;1.53;;;;;;;;;;5073297;28;20308;-95
2022/04/26 07:13:22;;;;;;;2.20;1.20;;;;;;;;;;5073457;28;20587;-94
2022/04/26 07:15:49;;;;;;;2.03;0.90;;;;;;;;;;5073915;28;20223;-94
2022/04/26 07:18:20;;;;;;;4.33;1.10;;;;;;;;;;5073619;28;20201;-95
2022/04/26 07:20:47;;;;;;;2.97;1.43;;;;;;;;;;5073960;28;20216;-94
2022/04/26 07:23:22;;;;;;;1.10;1.07;;;;;;;;;;5073533;28;20220;-95
2022/04/26 07:25:51;;;;;;;2.60;1.30;;;;;;;;;;5073313;28;20193;-94
2022/04/26 07:28:25;;;;;;;1.47;1.23;;;;;;;;;;5073439;28;20204;-94
2022/04/26 07:30:53;;;;;;;1.77;1.27;;;;;;;;;;5072992;28;20653;-95
2022/04/26 07:36:05;;;;;;;5.50;1.50;;;;;;;;;;5072935;28;20327;-95
2022/04/26 07:38:34;;;;;;;1.53;1.10;;;;;;;;;;5073309;28;20197;-95
2022/04/26 07:41:02;;;;;;;1.73;1.00;;;;;;;;;;5073397;28;20242;-95
2022/04/26 07:43:29;;;;;;;3.47;1.37;;;;;;;;;;5073151;28;20204;-95
2022/04/26 07:45:56;;;;;;;6.60;1.67;;;;;;;;;;5073773;28;20243;-93
2022/04/26 07:48:39;;;;;;;3.63;1.30;;;;;;;;;;5073058;28;20280;-93
2022/04/26 07:51:17;;;;;;;2.63;1.50;;;;;;;;;;5072949;28;20696;-93
2022/04/26 07:53:49;;;;;;;1.40;1.00;;;;;;;;;;5073026;28;20200;-95
2022/04/26 07:56:16;;;;;;;1.20;1.10;;;;;;;;;;5073258;28;20280;-93
2022/04/26 07:58:44;;;;;;;2.90;1.77;;;;;;;;;;5073026;28;20283;-93
2022/04/26 08:01:11;;;;;;;5.83;1.27;;;;;;;;;;5072980;28;20670;-93
2022/04/26 08:03:39;;;;;;;7.63;2.10;;;;;;;;;;5074244;28;20197;-93
2022/04/26 08:06:18;;;;;;;1.60;1.00;;;;;;;;;;5072795;28;20198;-93
2022/04/26 08:08:45;;;;;;;3.20;2.17;;;;;;;;;;5072836;28;20203;-93
2022/04/26 08:11:14;;;;;;;3.03;1.37;;;;;;;;;;5072395;28;20596;-93
2022/04/26 08:13:42;;;;;;;3.93;1.27;;;;;;;;;;5073058;28;20223;-93
2022/04/26 08:16:15;;;;;;;1.80;1.20;;;;;;;;;;5072686;28;20217;-93
2022/04/26 08:18:45;;;;;;;2.20;1.10;;;;;;;;;;5072668;28;20280;-93
2022/04/26 08:21:14;;;;;;;2.70;1.17;;;;;;;;;;5073521;28;20550;-93
2022/04/26 08:29:12;;;;;;;2.17;1.23;;;;;;;;;;5077105;28;20185;-94
2022/04/26 08:31:43;;;;;;;4.63;1.10;;;;;;;;;;5076409;28;20224;-93
2022/04/26 08:34:11;;;;;;;2.00;1.27;;;;;;;;;;5076694;28;20203;-94
2022/04/26 08:36:41;;;;;;;4.33;1.23;;;;;;;;;;5077002;28;20286;-92
2022/04/26 08:39:08;;;;;;;1.30;1.20;;;;;;;;;;5077302;28;20654;-93
2022/04/26 08:41:46;;;;;;;2.07;1.17;;;;;;;;;;5076348;28;20216;-93
2022/04/26 08:44:14;;;;;;;4.60;1.53;;;;;;;;;;5076732;28;20279;-94
2022/04/26 08:52:25;;;;;;;2.13;1.33;;;;;;;;;;5076417;28;20213;-94
2022/04/26 08:54:53;;;;;;;3.80;1.70;;;;;;;;;;5076271;28;20284;-93
2022/04/26 08:57:21;;;;;;;5.13;2.30;;;;;;;;;;5076049;28;20270;-93
2022/04/26 08:59:49;;;;;;;5.23;1.60;;;;;;;;;;5076323;28;20251;-93
2022/04/26 09:02:34;;;;;;;4.27;1.73;;;;;;;;;;5075982;28;20296;-94
2022/04/26 09:05:04;;;;;;;3.17;1.70;;;;;;;;;;5076230;28;20282;-93
2022/04/26 09:07:32;;;;;;;7.27;3.60;;;;;;;;;;5076692;28;20201;-93
2022/04/26 09:10:10;;;;;;;5.00;1.97;;;;;;;;;;5076628;28;20302;-94
2022/04/26 09:13:06;;;;;;;2.77;1.73;;;;;;;;;;5076262;28;20284;-94
2022/04/26 09:15:42;;;;;;;12.20;1.70;;;;;;;;;;5076296;28;20251;-93
2022/04/26 09:18:20;;;;;;;1.97;1.70;;;;;;;;;;5076093;28;20189;-93
2022/04/26 09:20:48;;;;;;;9.50;5.30;;;;;;;;;;5075631;28;20192;-93
2022/04/26 09:23:19;;;;;;;3.27;2.20;;;;;;;;;;5075658;28;20201;-93
2022/04/26 09:25:48;;;;;;;5.33;3.10;;;;;;;;;;5076975;28;20212;-94
2022/04/26 09:28:27;;;;;;;5.03;2.60;;;;;;;;;;5075772;28;20283;-95
2022/04/26 09:31:20;;;;;;;2.93;1.30;;;;;;;;;;5075556;28;20225;-93
2022/04/26 09:33:52;;;;;;;3.13;1.47;;;;;;;;;;5075443;28;20600;-93
2022/04/26 09:36:20;;;;;;;2.90;1.40;;;;;;;;;;5075409;28;20297;-93
2022/04/26 09:38:51;;;;;;;4.07;1.40;;;;;;;;;;5075470;28;20242;-94
2022/04/26 09:41:19;;;;;;;4.10;1.50;;;;;;;;;;5075341;28;20213;-94
2022/04/26 09:43:56;;;;;;;5.23;1.50;;;;;;;;;;5075824;28;20654;-94
2022/04/26 09:46:24;;;;;;;2.30;1.40;;;;;;;;;;5075119;28;20204;-93
2022/04/26 09:48:53;;;;;;;2.27;1.43;;;;;;;;;;5075087;28;20204;-93
2022/04/26 09:51:30;;;;;;;4.60;1.50;;;;;;;;;;5074796;28;20235;-93
2022/04/26 09:53:57;;;;;;;3.23;1.53;;;;;;;;;;5075473;28;20193;-93
2022/04/26 09:56:34;;;;;;;4.50;1.70;;;;;;;;;;5075762;28;20204;-94
2022/04/26 09:59:09;;;;;;;1.73;1.50;;;;;;;;;;5075088;28;20254;-94
2022/04/26 10:01:41;;;;;;;3.87;1.50;;;;;;;;;;5074711;28;20236;-94
2022/04/26 10:04:10;;;;;;;2.80;1.47;;;;;;;;;;5074796;28;20208;-93
2022/04/26 10:06:38;;;;;;;7.67;1.70;;;;;;;;;;5075063;28;20554;-93
2022/04/26 10:09:07;;;;;;;3.17;2.00;;;;;;;;;;5074852;28;20221;-94
2022/04/26 10:11:37;;;;;;;3.83;2.50;;;;;;;;;;5074608;28;20248;-95
2022/04/26 10:14:08;;;;;;;3.63;1.87;;;;;;;;;;5075099;28;20235;-94
2022/04/26 10:16:36;;;;;;;4.13;1.60;;;;;;;;;;5074553;28;20199;-94
2022/04/26 10:19:08;;;;;;;5.03;2.03;;;;;;;;;;5074914;28;20295;-92
2022/04/26 10:21:47;;;;;;;6.67;2.00;;;;;;;;;;5075042;28;20201;-94
2022/04/26 10:24:22;;;;;;;5.03;1.93;;;;;;;;;;5074960;28;20197;-93
2022/04/26 10:26:53;;;;;;;3.27;1.43;;;;;;;;;;5074812;28;20287;-95
2022/04/26 10:29:26;;;;;;;5.03;2.33;;;;;;;;;;5075332;28;20217;-93
2022/04/26 10:32:01;;;;;;;3.63;1.77;;;;;;;;;;5074414;28;20221;-96
2022/04/26 10:34:30;;;;;;;3.83;1.70;;;;;;;;;;5081105;28;20189;-92
2022/04/26 10:37:33;;;;;;;3.20;1.47;;;;;;;;;;5078329;28;20242;-95
2022/04/26 10:40:04;;;;;;;2.50;1.60;;;;;;;;;;5074207;28;20196;-95
2022/04/26 10:43:06;;;;;;;3.80;2.20;;;;;;;;;;5074271;28;20197;-95
2022/04/26 10:45:36;;;;;;;6.13;2.37;;;;;;;;;;5073619;28;20246;-94
2022/04/26 10:48:30;;;;;;;4.47;1.70;;;;;;;;;;5074082;28;20199;-94
2022/04/26 10:50:57;;;;;;;4.27;1.60;;;;;;;;;;5074528;28;20652;-94
2022/04/26 10:53:52;;;;;;;3.83;1.80;;;;;;;;;;5074114;28;20303;-95
2022/04/26 10:56:31;;;;;;;3.23;1.27;;;;;;;;;;5073788;28;20192;-93
2022/04/26 10:59:13;;;;;;;5.03;1.73;;;;;;;;;;5073730;28;20686;-95
2022/04/26 11:02:03;;;;;;;5.13;1.40;;;;;;;;;;5073706;28;20594;-94
2022/04/26 11:04:33;;;;;;;5.40;1.73;;;;;;;;;;5073569;28;20193;-94
2022/04/26 11:07:11;;;;;;;5.60;1.63;;;;;;;;;;5073715;28;20200;-95
2022/04/26 11:09:46;;;;;;;3.13;1.70;;;;;;;;;;5073970;28;20642;-95
2022/04/26 11:12:27;;;;;;;2.13;1.40;;;;;;;;;;5073807;28;20252;-93
2022/04/26 11:14:56;;;;;;;2.17;1.40;;;;;;;;;;5073727;28;20669;-93
2022/04/26 11:17:25;;;;;;;2.23;1.47;;;;;;;;;;5073374;28;20221;-94
2022/04/26 11:20:00;;;;;;;4.00;1.57;;;;;;;;;;5073346;28;20193;-94
2022/04/26 11:22:29;;;;;;;3.30;1.70;;;;;;;;;;5073227;28;20287;-96
2022/04/26 11:28:06;;;;;;;5.30;1.73;;;;;;;;;;5073284;28;20185;-94
2022/04/26 11:30:40;;;;;;;5.13;1.80;;;;;;;;;;5073052;28;20280;-93
2022/04/26 11:33:15;;;;;;;2.30;1.70;;;;;;;;;;5073861;28;20219;-93
2022/04/26 11:36:08;;;;;;;5.60;1.60;;;;;;;;;;5072869;28;20298;-95
2022/04/26 11:38:41;;;;;;;5.83;1.77;;;;;;;;;;5073055;28;20263;-94
2022/04/26 11:41:09;;;;;;;4.90;2.13;;;;;;;;;;5073121;28;20193;-95
2022/04/26 11:43:48;;;;;;;7.93;2.23;;;;;;;;;;5073152;28;20200;-96
2022/04/26 11:46:16;;;;;;;5.83;1.87;;;;;;;;;;5073008;28;20231;-95
2022/04/26 11:48:49;;;;;;;9.47;2.27;;;;;;;;;;5073015;28;20276;-94
2022/04/26 11:51:16;;;;;;;4.53;1.73;;;;;;;;;;5072880;28;20224;-96
2022/04/26 11:53:46;;;;;;;5.20;1.43;;;;;;;;;;5072873;28;20658;-95
2022/04/26 11:56:17;;;;;;;6.60;2.47;;;;;;;;;;5072772;28;20201;-95
2022/04/26 11:58:44;;;;;;;1.90;1.27;;;;;;;;;;5073284;28;20275;-95
2022/04/26 12:01:21;;;;;;;3.90;1.80;;;;;;;;;;5072939;28;20212;-96
2022/04/26 12:03:59;;;;;;;4.13;1.87;;;;;;;;;;5073656;28;20200;-95
2022/04/26 12:06:28;;;;;;;5.23;1.67;;;;;;;;;;5072596;28;20204;-96
2022/04/26 12:08:57;;;;;;;5.70;2.00;;;;;;;;;;5072743;28;20205;-95
2022/04/26 12:11:32;;;;;;;2.60;1.30;;;;;;;;;;5072603;28;20221;-95
2022/04/26 12:14:11;;;;;;;8.93;2.30;;;;;;;;;;5072636;28;20196;-95
2022/04/26 12:16:42;;;;;;;5.73;1.60;;;;;;;;;;5072849;28;20203;-95
2022/04/26 12:19:17;;;;;;;4.07;2.13;;;;;;;;;;5072658;28;20247;-96
2022/04/26 12:21:46;;;;;;;5.17;2.13;;;;;;;;;;5072713;28;20222;-95
2022/04/26 12:24:14;;;;;;;2.87;2.00;;;;;;;;;;5072977;28;20284;-95
2022/04/26 12:26:52;;;;;;;5.93;2.37;;;;;;;;;;5072734;28;20580;-95
2022/04/26 12:29:32;;;;;;;4.93;1.90;;;;;;;;;;5072585;28;20650;-95
2022/04/26 12:32:00;;;;;;;8.73;2.13;;;;;;;;;;5072673;28;20708;-94
2022/04/26 12:34:30;;;;;;;5.73;1.80;;;;;;;;;;5072464;28;20730;-94
2022/04/26 12:37:00;;;;;;;7.70;2.30;;;;;;;;;;5072034;28;20590;-95
2022/04/26 12:39:30;;;;;;;2.73;2.10;;;;;;;;;;5073463;28;20244;-95
2022/04/26 12:41:59;;;;;;;2.40;1.60;;;;;;;;;;5071012;28;20221;-95
2022/04/26 12:44:27;;;;;;;9.00;2.47;;;;;;;;;;5072576;28;20591;-95
2022/04/26 12:53:01;;;;;;;5.73;1.93;;;;;;;;;;5072893;28;20208;-95
2022/04/26 12:55:31;;;;;;;3.40;1.60;;;;;;;;;;5072429;28;20665;-95
2022/04/26 12:58:00;;;;;;;5.30;2.13;;;;;;;;;;5072639;28;20196;-96
2022/04/26 13:00:28;;;;;;;7.33;1.70;;;;;;;;;;5072422;28;20278;-95
2022/04/26 13:03:00;;;;;;;7.60;2.17;;;;;;;;;;5072814;28;20280;-95
2022/04/26 13:05:35;;;;;;;3.70;1.47;;;;;;;;;;5072277;28;20234;-95
2022/04/26 13:08:06;;;;;;;13.37;2.67;;;;;;;;;;5074700;28;20649;-95
2022/04/26 13:10:37;;;;;;;4.13;1.73;;;;;;;;;;5075828;28;20201;-94
2022/04/26 13:13:05;;;;;;;2.40;1.50;;;;;;;;;;5075696;28;20228;-95
2022/04/26 13:15:33;;;;;;;4.63;1.80;;;;;;;;;;5075943;28;20197;-95
2022/04/26 13:18:18;;;;;;;1.73;1.37;;;;;;;;;;5075678;28;20284;-94
2022/04/26 13:20:48;;;;;;;2.37;1.50;;;;;;;;;;5075697;28;20196;-94
2022/04/26 13:23:16;;;;;;;2.37;1.93;;;;;;;;;;5075494;28;20197;-95
2022/04/26 13:25:59;;;;;;;4.90;2.07;;;;;;;;;;5075737;28;20259;-94
2022/04/26 13:28:26;;;;;;;2.67;1.60;;;;;;;;;;5075484;28;20212;-95
2022/04/26 13:30:57;;;;;;;2.90;1.73;;;;;;;;;;5075461;28;20189;-94
2022/04/26 13:33:24;;;;;;;1.93;1.40;;;;;;;;;;5075529;28;20739;-95
2022/04/26 13:36:07;;;;;;;5.70;2.60;;;;;;;;;;5075419;28;20235;-94
2022/04/26 13:38:44;;;;;;;3.87;1.83;;;;;;;;;;5075644;28;20207;-94
2022/04/26 13:41:12;;;;;;;3.83;1.40;;;;;;;;;;5075574;28;20692;-94
2022/04/26 13:43:41;;;;;;;3.10;2.00;;;;;;;;;;5075372;28;20189;-95
2022/04/26 13:46:14;;;;;;;3.03;1.83;;;;;;;;;;5075148;28;20673;-95
2022/04/26 13:48:42;;;;;;;6.23;2.07;;;;;;;;;;5075018;28;20200;-95
2022/04/26 13:51:11;;;;;;;6.83;2.00;;;;;;;;;;5074989;28;20277;-96
2022/04/26 13:53:38;;;;;;;3.27;2.40;;;;;;;;;;5075311;28;20738;-95
2022/04/26 13:56:17;;;;;;;5.37;2.60;;;;;;;;;;5075406;28;20208;-96
2022/04/26 13:58:45;;;;;;;13.07;2.80;;;;;;;;;;5075106;28;20197;-94
2022/04/26 14:01:13;;;;;;;7.07;2.80;;;;;;;;;;5074861;28;20228;-93
2022/04/26 14:03:40;;;;;;;6.87;2.30;;;;;;;;;;5075175;28;20197;-93
2022/04/26 14:06:12;;;;;;;3.87;2.30;;;;;;;;;;5075026;28;20276;-90
2022/04/26 14:08:40;;;;;;;2.40;1.90;;;;;;;;;;5074947;28;20197;-92
2022/04/26 14:11:07;;;;;;;4.63;1.70;;;;;;;;;;5074898;28;20278;-93
2022/04/26 14:21:58;;;;;;;5.93;1.93;;;;;;;;;;5074696;28;20176;-93
2022/04/26 14:24:25;;;;;;;2.70;1.70;;;;;;;;;;5074359;28;20204;-94
2022/04/26 14:26:53;;;;;;;3.03;1.60;;;;;;;;;;5075820;28;20292;-92
2022/04/26 14:29:21;;;;;;;2.20;1.10;;;;;;;;;;5074391;28;20197;-92
2022/04/26 14:31:51;;;;;;;2.27;1.13;;;;;;;;;;5078610;28;20231;-94
2022/04/26 14:34:33;;;;;;;1.50;1.13;;;;;;;;;;5080174;28;20201;-93
2022/04/26 14:37:03;;;;;;;5.83;1.63;;;;;;;;;;5073900;28;20228;-93
2022/04/26 14:39:30;;;;;;;2.60;1.30;;;;;;;;;;5074073;28;20208;-93
2022/04/26 14:41:58;;;;;;;2.23;1.30;;;;;;;;;;5074216;28;20287;-93
2022/04/26 14:44:28;;;;;;;3.03;1.67;;;;;;;;;;5074089;28;20201;-92
2022/04/26 14:46:55;;;;;;;2.40;1.10;;;;;;;;;;5073975;28;20280;-93
2022/04/26 14:49:23;;;;;;;8.80;1.47;;;;;;;;;;5073984;28;20280;-92
2022/04/26 14:51:50;;;;;;;4.00;1.40;;;;;;;;;;5073897;28;20221;-93
2022/04/26 14:54:19;;;;;;;2.23;1.17;;;;;;;;;;5074103;28;20311;-93
2022/04/26 14:56:46;;;;;;;3.43;1.63;;;;;;;;;;5074002;28;20200;-94
2022/04/26 14:59:17;;;;;;;2.73;1.40;;;;;;;;;;5074006;28;20280;-93
2022/04/26 15:01:46;;;;;;;3.57;1.97;;;;;;;;;;5073947;28;20208;-93
2022/04/26 15:04:13;;;;;;;1.53;1.30;;;;;;;;;;5073845;28;20192;-93
2022/04/26 15:06:40;;;;;;;1.20;1.10;;;;;;;;;;5073589;28;20193;-94
2022/04/26 15:17:29;;;;;;;5.23;1.23;;;;;;;;;;5073438;28;20230;-95
2022/04/26 15:19:57;;;;;;;1.70;1.60;;;;;;;;;;5073291;28;20276;-94
2022/04/26 15:22:26;;;;;;;1.93;1.10;;;;;;;;;;5073567;28;20227;-94
2022/04/26 15:24:55;;;;;;;1.83;1.37;;;;;;;;;;5073732;28;20657;-95
2022/04/26 15:27:32;;;;;;;1.57;1.20;;;;;;;;;;5073233;28;20193;-95
2022/04/26 15:29:59;;;;;;;1.90;1.17;;;;;;;;;;5073275;28;20201;-96
2022/04/26 15:32:27;;;;;;;1.50;1.30;;;;;;;;;;5073955;28;20584;-95
2022/04/26 15:34:57;;;;;;;4.17;1.57;;;;;;;;;;5073018;28;20197;-94
2022/04/26 15:37:25;;;;;;;1.37;1.17;;;;;;;;;;5072985;28;20248;-95
2022/04/26 15:39:53;;;;;;;1.30;1.20;;;;;;;;;;5073072;28;20254;-95
2022/04/26 15:42:34;;;;;;;1.30;1.20;;;;;;;;;;5073358;28;20193;-94
2022/04/26 15:45:02;;;;;;;2.97;1.87;;;;;;;;;;5073440;28;20205;-95
2022/04/26 15:47:29;;;;;;;2.80;1.30;;;;;;;;;;5073117;28;20601;-95
2022/04/26 15:50:09;;;;;;;1.73;1.03;;;;;;;;;;5073614;28;20239;-95
2022/04/26 15:52:37;;;;;;;2.60;1.60;;;;;;;;;;5072964;28;20303;-95
2022/04/26 15:55:11;;;;;;;4.97;1.90;;;;;;;;;;5073043;28;20575;-95
2022/04/26 15:57:53;;;;;;;3.67;1.90;;;;;;;;;;5073016;28;20256;-96
2022/04/26 16:00:21;;;;;;;3.07;1.70;;;;;;;;;;5072816;28;20196;-96
2022/04/26 16:02:48;;;;;;;15.17;10.10;;;;;;;;;;5072632;28;20205;-95
2022/04/26 16:05:19;;;;;;;8.10;5.97;;;;;;;;;;5072773;28;20204;-96
2022/04/26 16:07:49;;;;;;;11.00;7.53;;;;;;;;;;5072865;28;20223;-96
2022/04/26 16:21:25;;;;;;;4.57;3.53;;;;;;;;;;5073775;28;20668;-94
2022/04/26 16:23:56;;;;;;;4.20;3.40;;;;;;;;;;5073056;28;20189;-96
2022/04/26 16:26:24;;;;;;;2.53;2.30;;;;;;;;;;5072598;28;20283;-96
2022/04/26 16:28:53;;;;;;;1.77;1.63;;;;;;;;;;5072920;28;20204;-96
2022/04/26 16:31:27;;;;;;;7.77;1.60;;;;;;;;;;5072700;28;20193;-96
2022/04/26 16:33:55;;;;;;;3.10;2.17;;;;;;;;;;5072447;28;20220;-96
2022/04/26 16:36:23;;;;;;;5.60;4.17;;;;;;;;;;5071931;28;20233;-96
2022/04/26 16:38:50;;;;;;;11.17;7.13;;;;;;;;;;5072672;28;20201;-95
2022/04/26 16:41:18;;;;;;;10.80;5.00;;;;;;;;;;5072446;28;20201;-96
2022/04/26 16:43:46;;;;;;;7.37;5.97;;;;;;;;;;5075923;28;20197;-95
2022/04/26 16:46:15;;;;;;;5.60;3.63;;;;;;;;;;5076610;28;20196;-96
2022/04/26 16:48:49;;;;;;;8.63;4.90;;;;;;;;;;5076219;28;20212;-94
2022/04/26 16:51:17;;;;;;;6.93;3.73;;;;;;;;;;5076509;28;20197;-95
2022/04/26 16:53:44;;;;;;;9.23;4.43;;;;;;;;;;5076144;28;20778;-95
2022/04/26 16:56:21;;;;;;;23.23;15.47;;;;;;;;;;5076100;28;20228;-96
2022/04/26 16:58:48;;;;;;;31.43;19.27;;;;;;;;;;5075913;28;20193;-96
2022/04/26 17:01:20;;;;;;;24.87;11.77;;;;;;;;;;5075996;28;20208;-95
2022/04/26 17:03:47;;;;;;;10.90;9.20;;;;;;;;;;5076384;28;20283;-95
2022/04/26 17:06:20;;;;;;;9.80;8.67;;;;;;;;;;5076158;28;20189;-96
2022/04/26 17:09:00;;;;;;;3.43;2.17;;;;;;;;;;5075938;28;20276;-96
2022/04/26 17:11:42;;;;;;;4.20;2.13;;;;;;;;;;5076116;28;20256;-95
2022/04/26 17:14:14;;;;;;;3.40;1.80;;;;;;;;;;5075768;28;20715;-95
2022/04/26 17:16:45;;;;;;;2.17;2.07;;;;;;;;;;5076005;28;20197;-96
2022/04/26 17:19:24;;;;;;;1.40;1.30;;;;;;;;;;5076264;28;20204;-96
2022/04/26 17:21:59;;;;;;;4.03;1.77;;;;;;;;;;5075587;28;20204;-94
2022/04/26 17:27:11;;;;;;;5.60;4.60;;;;;;;;;;5075898;28;20180;-96
2022/04/26 17:29:39;;;;;;;5.40;4.67;;;;;;;;;;5076121;28;20201;-95
2022/04/26 17:32:14;;;;;;;3.80;3.40;;;;;;;;;;5075320;28;20230;-95
2022/04/26 17:34:47;;;;;;;8.37;7.40;;;;;;;;;;5075782;28;20188;-94
2022/04/26 17:37:18;;;;;;;13.67;6.13;;;;;;;;;;5075323;28;20268;-93
2022/04/26 17:39:51;;;;;;;5.67;3.63;;;;;;;;;;5075962;28;20197;-94
2022/04/26 17:42:24;;;;;;;2.07;1.87;;;;;;;;;;5075207;28;20196;-93
2022/04/26 17:44:51;;;;;;;2.83;1.90;;;;;;;;;;5074904;28;20221;-93
2022/04/26 17:47:20;;;;;;;3.50;1.80;;;;;;;;;;5075139;28;20189;-93
2022/04/26 17:49:47;;;;;;;15.20;6.60;;;;;;;;;;5075220;28;20276;-93
2022/04/26 17:52:20;;;;;;;8.27;3.50;;;;;;;;;;5075371;28;20203;-94
2022/04/26 17:57:50;;;;;;;5.40;3.03;;;;;;;;;;5075457;28;20184;-94
2022/04/26 18:00:21;;;;;;;3.70;2.90;;;;;;;;;;5075059;28;20204;-93
2022/04/26 18:02:54;;;;;;;9.20;8.40;;;;;;;;;;5075335;28;20207;-93
2022/04/26 18:05:22;;;;;;;4.23;2.37;;;;;;;;;;5074820;28;20720;-93
2022/04/26 18:07:51;;;;;;;7.53;4.20;;;;;;;;;;5075265;28;20205;-94
2022/04/26 18:10:21;;;;;;;3.97;2.97;;;;;;;;;;5074976;28;20193;-93
2022/04/26 18:12:49;;;;;;;5.97;2.87;;;;;;;;;;5075112;28;20271;-94
2022/04/26 18:15:22;;;;;;;2.80;2.60;;;;;;;;;;5074580;28;20205;-93
2022/04/26 18:17:57;;;;;;;4.50;2.23;;;;;;;;;;5074831;28;20318;-92
2022/04/26 18:20:25;;;;;;;5.53;3.10;;;;;;;;;;5074677;28;20272;-92
2022/04/26 18:22:59;;;;;;;6.63;3.10;;;;;;;;;;5074632;28;20212;-93
2022/04/26 18:28:25;;;;;;;4.10;3.63;;;;;;;;;;5073031;28;20234;-93
2022/04/26 18:30:56;;;;;;;10.43;4.63;;;;;;;;;;5074266;28;20253;-91
2022/04/26 18:33:25;;;;;;;8.73;3.20;;;;;;;;;;5074322;28;20233;-92
2022/04/26 18:36:01;;;;;;;9.47;4.43;;;;;;;;;;5075614;28;20200;-91
2022/04/26 18:38:32;;;;;;;9.40;3.40;;;;;;;;;;5076333;28;20198;-92
2022/04/26 18:41:02;;;;;;;2.60;2.40;;;;;;;;;;5075073;28;20213;-92
2022/04/26 18:43:29;;;;;;;4.57;3.03;;;;;;;;;;5074397;28;20197;-92
2022/04/26 18:45:58;;;;;;;6.23;2.50;;;;;;;;;;5074160;28;20749;-93
2022/04/26 18:48:28;;;;;;;4.23;2.40;;;;;;;;;;5074180;28;20200;-93
2022/04/26 18:50:55;;;;;;;3.50;2.90;;;;;;;;;;5073617;28;20288;-93
2022/04/26 18:53:32;;;;;;;2.07;1.60;;;;;;;;;;5073609;28;20245;-94
2022/04/26 18:56:03;;;;;;;7.20;2.53;;;;;;;;;;5073950;28;20250;-94
2022/04/26 18:58:30;;;;;;;4.23;2.53;;;;;;;;;;5074084;28;20220;-94
2022/04/26 19:01:01;;;;;;;5.13;2.90;;;;;;;;;;5074206;28;20223;-95
2022/04/26 19:03:35;;;;;;;4.77;2.90;;;;;;;;;;5074645;28;20231;-95
2022/04/26 19:06:03;;;;;;;5.13;2.20;;;;;;;;;;5073162;28;20204;-95
2022/04/26 19:08:33;;;;;;;2.40;2.20;;;;;;;;;;5073867;28;20196;-96
2022/04/26 19:13:48;;;;;;;3.37;1.80;;;;;;;;;;5075988;28;20292;-96
2022/04/26 19:16:28;;;;;;;4.10;2.60;;;;;;;;;;5076598;28;20201;-96
2022/04/26 19:19:09;;;;;;;3.63;2.03;;;;;;;;;;5077493;28;20283;-96
2022/04/26 19:21:40;;;;;;;3.07;1.60;;;;;;;;;;5075584;28;20657;-95
2022/04/26 19:24:12;;;;;;;3.57;2.10;;;;;;;;;;5077693;28;20274;-96
2022/04/26 19:26:42;;;;;;;4.87;2.43;;;;;;;;;;5077561;28;20193;-96
2022/04/26 19:29:13;;;;;;;3.43;2.27;;;;;;;;;;5077054;28;20189;-96
2022/04/26 19:31:40;;;;;;;3.43;1.97;;;;;;;;;;5077186;28;20201;-96
2022/04/26 19:34:09;;;;;;;1.80;1.70;;;;;;;;;;5076191;28;20221;-96
2022/04/26 19:36:37;;;;;;;3.67;2.37;;;;;;;;;;5075062;28;20253;-96
2022/04/26 19:39:04;;;;;;;2.30;1.60;;;;;;;;;;5074183;28;20193;-96
2022/04/26 19:41:34;;;;;;;3.40;2.00;;;;;;;;;;5073539;28;20662;-95
2022/04/26 19:44:05;;;;;;;3.87;2.20;;;;;;;;;;5074238;28;20258;-95
2022/04/26 19:46:33;;;;;;;3.30;2.20;;;;;;;;;;5073315;28;20239;-95
2022/04/26 19:49:00;;;;;;;4.57;2.10;;;;;;;;;;5074142;28;20197;-95